createdAt,value
2017-09-10T00:00:32.965Z,993.58
2017-09-10T00:01:32.955Z,993.57
2017-09-10T00:02:32.936Z,993.58
2017-09-10T00:03:32.921Z,993.62
2017-09-10T00:04:32.909Z,993.62
2017-09-10T00:05:32.892Z,993.67
2017-09-10T00:06:32.881Z,993.63
2017-09-10T00:07:32.862Z,993.6
2017-09-10T00:08:32.848Z,993.62
2017-09-10T00:09:32.833Z,993.63
2017-09-10T00:10:32.824Z,993.64
2017-09-10T00:11:32.805Z,993.66
2017-09-10T00:12:32.790Z,993.64
2017-09-10T00:13:32.772Z,993.62
2017-09-10T00:14:32.760Z,993.66
2017-09-10T00:15:32.746Z,993.65
2017-09-10T00:16:32.729Z,993.67
2017-09-10T00:17:32.718Z,993.69
2017-09-10T00:18:32.699Z,993.68
2017-09-10T00:19:32.685Z,993.72
2017-09-10T00:20:32.670Z,993.72
2017-09-10T00:21:32.655Z,993.72
2017-09-10T00:22:32.645Z,993.73
2017-09-10T00:23:32.625Z,993.7
2017-09-10T00:24:32.613Z,993.69
2017-09-10T00:25:32.599Z,993.73
2017-09-10T00:26:32.580Z,993.71
2017-09-10T00:27:32.567Z,993.72
2017-09-10T00:28:32.551Z,993.73
2017-09-10T00:29:32.539Z,993.73
2017-09-10T00:30:32.521Z,993.74
2017-09-10T00:31:32.505Z,993.7
2017-09-10T00:32:32.493Z,993.71
2017-09-10T00:33:32.476Z,993.72
2017-09-10T00:34:32.463Z,993.69
2017-09-10T00:35:32.445Z,993.7
2017-09-10T00:36:32.432Z,993.71
2017-09-10T00:37:32.415Z,993.72
2017-09-10T00:38:32.402Z,993.75
2017-09-10T00:39:32.387Z,993.77
2017-09-10T00:40:32.370Z,993.78
2017-09-10T00:41:32.359Z,993.75
2017-09-10T00:42:32.340Z,993.74
2017-09-10T00:43:32.325Z,993.71
2017-09-10T00:44:32.311Z,993.73
2017-09-10T00:45:32.299Z,993.76
2017-09-10T00:46:32.282Z,993.74
2017-09-10T00:47:32.269Z,993.78
2017-09-10T00:48:32.252Z,993.75
2017-09-10T00:49:32.238Z,993.76
2017-09-10T00:50:32.222Z,993.75
2017-09-10T00:51:32.208Z,993.78
2017-09-10T00:52:32.193Z,993.77
2017-09-10T00:53:32.175Z,993.76
2017-09-10T00:54:32.161Z,993.77
2017-09-10T00:55:32.147Z,993.78
2017-09-10T00:56:32.179Z,993.76
2017-09-10T00:57:32.114Z,993.82
2017-09-10T00:58:32.102Z,993.77
2017-09-10T00:59:32.084Z,993.81
2017-09-10T01:00:32.069Z,993.82
2017-09-10T01:01:32.059Z,993.79
2017-09-10T01:02:32.038Z,993.8
2017-09-10T01:03:32.023Z,993.8
2017-09-10T01:04:32.007Z,993.78
2017-09-10T01:05:31.993Z,993.81
2017-09-10T01:06:31.979Z,993.81
2017-09-10T01:07:31.963Z,993.8
2017-09-10T01:08:31.946Z,993.84
2017-09-10T01:09:31.936Z,993.84
2017-09-10T01:10:31.917Z,993.81
2017-09-10T01:11:31.903Z,993.83
2017-09-10T01:12:31.886Z,993.83
2017-09-10T01:13:31.876Z,993.83
2017-09-10T01:14:31.856Z,993.88
2017-09-10T01:15:31.842Z,993.92
2017-09-10T01:16:31.824Z,993.89
2017-09-10T01:17:31.812Z,993.91
2017-09-10T01:18:31.795Z,993.89
2017-09-10T01:19:31.781Z,993.93
2017-09-10T01:20:31.764Z,993.91
2017-09-10T01:21:31.749Z,993.94
2017-09-10T01:22:31.735Z,993.99
2017-09-10T01:23:31.719Z,993.99
2017-09-10T01:24:31.703Z,993.98
2017-09-10T01:25:31.689Z,994.01
2017-09-10T01:26:31.672Z,994.04
2017-09-10T01:27:31.658Z,994
2017-09-10T01:28:31.643Z,994.08
2017-09-10T01:29:31.632Z,994.02
2017-09-10T01:30:31.614Z,994.02
2017-09-10T01:31:31.596Z,993.99
2017-09-10T01:32:31.580Z,994.06
2017-09-10T01:33:31.570Z,994.05
2017-09-10T01:34:31.552Z,994.09
2017-09-10T01:35:31.533Z,994.02
2017-09-10T01:36:31.518Z,994.05
2017-09-10T01:37:31.504Z,994.08
2017-09-10T01:38:31.492Z,994.04
2017-09-10T01:39:31.474Z,994.05
2017-09-10T01:40:31.459Z,994.07
2017-09-10T01:41:31.448Z,994.09
2017-09-10T01:42:31.428Z,994.05
2017-09-10T01:43:31.420Z,994.08
2017-09-10T01:44:31.399Z,994.08
2017-09-10T01:45:31.385Z,994.08
2017-09-10T01:46:31.365Z,994.07
2017-09-10T01:47:31.351Z,994.07
2017-09-10T01:48:31.334Z,994.08
2017-09-10T01:49:31.322Z,994.12
2017-09-10T01:50:31.305Z,994.1
2017-09-10T01:51:31.290Z,994.09
2017-09-10T01:52:31.273Z,994.16
2017-09-10T01:53:31.258Z,994.19
2017-09-10T01:54:31.243Z,994.16
2017-09-10T01:55:31.227Z,994.19
2017-09-10T01:56:31.212Z,994.18
2017-09-10T01:57:31.200Z,994.16
2017-09-10T01:58:31.180Z,994.18
2017-09-10T01:59:31.165Z,994.21
2017-09-10T02:00:31.153Z,994.24
2017-09-10T02:01:31.133Z,994.24
2017-09-10T02:02:31.119Z,994.25
2017-09-10T02:03:31.105Z,994.25
2017-09-10T02:04:31.088Z,994.28
2017-09-10T02:05:31.071Z,994.23
2017-09-10T02:06:31.056Z,994.25
2017-09-10T02:07:31.041Z,994.29
2017-09-10T02:08:31.031Z,994.26
2017-09-10T02:09:31.014Z,994.26
2017-09-10T02:10:30.995Z,994.22
2017-09-10T02:11:30.979Z,994.26
2017-09-10T02:12:30.963Z,994.22
2017-09-10T02:13:30.948Z,994.25
2017-09-10T02:14:30.932Z,994.25
2017-09-10T02:15:30.915Z,994.24
2017-09-10T02:16:30.902Z,994.28
2017-09-10T02:17:30.885Z,994.26
2017-09-10T02:18:30.869Z,994.28
2017-09-10T02:19:30.853Z,994.28
2017-09-10T02:20:30.839Z,994.34
2017-09-10T02:21:30.824Z,994.32
2017-09-10T02:22:30.810Z,994.29
2017-09-10T02:23:30.791Z,994.33
2017-09-10T02:24:30.778Z,994.33
2017-09-10T02:25:30.765Z,994.34
2017-09-10T02:26:30.745Z,994.38
2017-09-10T02:27:30.733Z,994.37
2017-09-10T02:28:30.718Z,994.41
2017-09-10T02:29:30.698Z,994.39
2017-09-10T02:30:30.684Z,994.42
2017-09-10T02:31:30.668Z,994.44
2017-09-10T02:32:30.652Z,994.41
2017-09-10T02:33:30.636Z,994.46
2017-09-10T02:34:30.620Z,994.47
2017-09-10T02:35:30.606Z,994.42
2017-09-10T02:36:30.590Z,994.44
2017-09-10T02:37:30.574Z,994.41
2017-09-10T02:38:30.557Z,994.42
2017-09-10T02:39:30.544Z,994.44
2017-09-10T02:40:30.526Z,994.44
2017-09-10T02:41:30.512Z,994.43
2017-09-10T02:42:30.495Z,994.44
2017-09-10T02:43:30.480Z,994.51
2017-09-10T02:44:30.462Z,994.48
2017-09-10T02:45:30.449Z,994.49
2017-09-10T02:46:30.431Z,994.5
2017-09-10T02:47:30.418Z,994.51
2017-09-10T02:48:30.401Z,994.47
2017-09-10T02:49:30.389Z,994.52
2017-09-10T02:50:30.371Z,994.5
2017-09-10T02:51:30.356Z,994.48
2017-09-10T02:52:30.339Z,994.54
2017-09-10T02:53:30.323Z,994.59
2017-09-10T02:54:30.309Z,994.56
2017-09-10T02:55:30.293Z,994.63
2017-09-10T02:56:30.274Z,994.59
2017-09-10T02:57:30.259Z,994.69
2017-09-10T02:58:30.246Z,994.68
2017-09-10T02:59:30.225Z,994.7
2017-09-10T03:00:30.210Z,994.69
2017-09-10T03:01:30.197Z,994.7
2017-09-10T03:02:30.182Z,994.7
2017-09-10T03:03:30.163Z,994.73
2017-09-10T03:04:30.149Z,994.72
2017-09-10T03:05:30.134Z,994.74
2017-09-10T03:06:30.118Z,994.7
2017-09-10T03:07:30.101Z,994.71
2017-09-10T03:08:30.087Z,994.71
2017-09-10T03:09:30.071Z,994.73
2017-09-10T03:10:30.056Z,994.77
2017-09-10T03:11:30.044Z,994.77
2017-09-10T03:12:30.025Z,994.73
2017-09-10T03:13:30.008Z,994.7
2017-09-10T03:14:29.994Z,994.75
2017-09-10T03:15:29.975Z,994.72
2017-09-10T03:16:29.961Z,994.74
2017-09-10T03:17:29.944Z,994.81
2017-09-10T03:18:29.937Z,994.78
2017-09-10T03:19:29.916Z,994.79
2017-09-10T03:20:29.898Z,994.78
2017-09-10T03:21:29.884Z,994.79
2017-09-10T03:22:29.869Z,994.81
2017-09-10T03:23:29.853Z,994.81
2017-09-10T03:24:29.835Z,994.81
2017-09-10T03:25:29.821Z,994.81
2017-09-10T03:26:29.803Z,994.82
2017-09-10T03:27:29.787Z,994.82
2017-09-10T03:28:29.774Z,994.86
2017-09-10T03:29:29.760Z,994.82
2017-09-10T03:30:29.745Z,994.79
2017-09-10T03:31:29.726Z,994.78
2017-09-10T03:32:29.709Z,994.78
2017-09-10T03:33:29.698Z,994.8
2017-09-10T03:34:29.682Z,994.77
2017-09-10T03:35:29.665Z,994.78
2017-09-10T03:36:29.646Z,994.76
2017-09-10T03:37:29.634Z,994.75
2017-09-10T03:38:29.615Z,994.75
2017-09-10T03:39:29.601Z,994.77
2017-09-10T03:40:29.585Z,994.78
2017-09-10T03:41:29.570Z,994.79
2017-09-10T03:42:29.557Z,994.81
2017-09-10T03:43:29.538Z,994.81
2017-09-10T03:44:29.520Z,994.8
2017-09-10T03:45:29.506Z,994.79
2017-09-10T03:46:29.491Z,994.78
2017-09-10T03:47:29.474Z,994.81
2017-09-10T03:48:29.459Z,994.8
2017-09-10T03:49:29.442Z,994.82
2017-09-10T03:50:29.429Z,994.81
2017-09-10T03:51:29.412Z,994.81
2017-09-10T03:52:29.399Z,994.83
2017-09-10T03:53:29.381Z,994.87
2017-09-10T03:54:29.369Z,994.85
2017-09-10T03:55:29.350Z,994.88
2017-09-10T03:56:29.336Z,994.88
2017-09-10T03:57:29.318Z,994.87
2017-09-10T03:58:29.304Z,994.87
2017-09-10T03:59:29.307Z,994.86
2017-09-10T04:00:29.273Z,994.91
2017-09-10T04:01:29.257Z,994.93
2017-09-10T04:02:29.244Z,994.93
2017-09-10T04:03:29.224Z,994.91
2017-09-10T04:04:29.210Z,994.96
2017-09-10T04:05:29.193Z,994.94
2017-09-10T04:06:29.178Z,994.93
2017-09-10T04:07:29.194Z,994.94
2017-09-10T04:08:29.147Z,994.91
2017-09-10T04:09:29.130Z,994.95
2017-09-10T04:10:29.115Z,994.93
2017-09-10T04:11:29.099Z,994.98
2017-09-10T04:12:29.081Z,994.99
2017-09-10T04:13:29.068Z,994.97
2017-09-10T04:14:29.052Z,995
2017-09-10T04:15:29.035Z,994.98
2017-09-10T04:16:29.021Z,995
2017-09-10T04:17:29.005Z,995
2017-09-10T04:18:28.988Z,994.99
2017-09-10T04:19:28.974Z,994.96
2017-09-10T04:20:28.956Z,995
2017-09-10T04:21:28.948Z,995.01
2017-09-10T04:22:28.926Z,995.07
2017-09-10T04:23:28.909Z,995.07
2017-09-10T04:24:28.894Z,995.06
2017-09-10T04:25:28.880Z,995.08
2017-09-10T04:26:28.863Z,995.06
2017-09-10T04:27:28.853Z,995.07
2017-09-10T04:28:28.830Z,995.01
2017-09-10T04:29:28.812Z,995.04
2017-09-10T04:30:28.801Z,995
2017-09-10T04:31:28.780Z,995.01
2017-09-10T04:32:28.765Z,994.96
2017-09-10T04:33:28.750Z,994.95
2017-09-10T04:34:28.740Z,994.93
2017-09-10T04:35:28.718Z,994.97
2017-09-10T04:36:28.702Z,994.93
2017-09-10T04:37:28.685Z,995.01
2017-09-10T04:38:28.672Z,994.97
2017-09-10T04:39:28.654Z,995
2017-09-10T04:40:28.639Z,994.98
2017-09-10T04:41:28.623Z,995
2017-09-10T04:42:28.608Z,995.03
2017-09-10T04:43:28.593Z,995.02
2017-09-10T04:44:28.576Z,995.06
2017-09-10T04:45:28.557Z,995
2017-09-10T04:46:28.546Z,995.05
2017-09-10T04:47:28.526Z,994.99
2017-09-10T04:48:28.514Z,995.05
2017-09-10T04:49:28.501Z,995.05
2017-09-10T04:50:28.497Z,995.03
2017-09-10T04:51:28.467Z,995.08
2017-09-10T04:52:28.447Z,995.13
2017-09-10T04:53:28.435Z,995.2
2017-09-10T04:54:28.415Z,995.18
2017-09-10T04:55:28.413Z,995.24
2017-09-10T04:56:28.385Z,995.24
2017-09-10T04:57:28.368Z,995.23
2017-09-10T04:58:28.352Z,995.31
2017-09-10T04:59:28.344Z,995.26
2017-09-10T05:00:28.320Z,995.3
2017-09-10T05:01:28.337Z,995.26
2017-09-10T05:02:28.288Z,995.29
2017-09-10T05:03:28.273Z,995.29
2017-09-10T05:04:28.255Z,995.33
2017-09-10T05:05:28.240Z,995.34
2017-09-10T05:06:28.226Z,995.32
2017-09-10T05:07:28.208Z,995.37
2017-09-10T05:08:28.196Z,995.34
2017-09-10T05:09:28.179Z,995.35
2017-09-10T05:10:28.161Z,995.34
2017-09-10T05:11:28.147Z,995.38
2017-09-10T05:12:28.128Z,995.38
2017-09-10T05:13:28.111Z,995.39
2017-09-10T05:14:28.096Z,995.39
2017-09-10T05:15:28.080Z,995.39
2017-09-10T05:16:28.064Z,995.37
2017-09-10T05:17:28.049Z,995.37
2017-09-10T05:18:28.033Z,995.38
2017-09-10T05:19:28.018Z,995.39
2017-09-10T05:20:28.003Z,995.4
2017-09-10T05:21:27.991Z,995.41
2017-09-10T05:22:27.972Z,995.42
2017-09-10T05:23:27.952Z,995.46
2017-09-10T05:24:27.936Z,995.47
2017-09-10T05:25:27.922Z,995.46
2017-09-10T05:26:27.905Z,995.48
2017-09-10T05:27:27.891Z,995.54
2017-09-10T05:28:27.874Z,995.51
2017-09-10T05:29:27.859Z,995.56
2017-09-10T05:30:27.847Z,995.58
2017-09-10T05:31:27.827Z,995.59
2017-09-10T05:32:27.816Z,995.53
2017-09-10T05:33:27.796Z,995.51
2017-09-10T05:34:27.784Z,995.51
2017-09-10T05:35:27.765Z,995.48
2017-09-10T05:36:27.748Z,995.48
2017-09-10T05:37:27.730Z,995.52
2017-09-10T05:38:27.715Z,995.52
2017-09-10T05:39:27.700Z,995.55
2017-09-10T05:40:27.683Z,995.59
2017-09-10T05:41:27.666Z,995.59
2017-09-10T05:42:27.661Z,995.63
2017-09-10T05:43:27.639Z,995.64
2017-09-10T05:44:27.622Z,995.64
2017-09-10T05:45:27.604Z,995.73
2017-09-10T05:46:27.590Z,995.74
2017-09-10T05:47:27.572Z,995.74
2017-09-10T05:48:27.556Z,995.81
2017-09-10T05:49:27.542Z,995.83
2017-09-10T05:50:27.525Z,995.82
2017-09-10T05:51:27.509Z,995.83
2017-09-10T05:52:27.495Z,995.84
2017-09-10T05:53:27.479Z,995.84
2017-09-10T05:54:27.463Z,995.84
2017-09-10T05:55:27.450Z,995.79
2017-09-10T05:56:27.431Z,995.84
2017-09-10T05:57:27.421Z,995.85
2017-09-10T05:58:27.400Z,995.83
2017-09-10T05:59:27.387Z,995.89
2017-09-10T06:00:27.369Z,995.91
2017-09-10T06:01:27.354Z,995.96
2017-09-10T06:02:27.338Z,995.98
2017-09-10T06:03:27.322Z,995.96
2017-09-10T06:04:27.307Z,996.02
2017-09-10T06:05:27.292Z,995.99
2017-09-10T06:06:27.276Z,996
2017-09-10T06:07:27.296Z,996
2017-09-10T06:08:27.245Z,996.01
2017-09-10T06:09:27.230Z,995.93
2017-09-10T06:10:27.215Z,995.95
2017-09-10T06:11:27.201Z,995.97
2017-09-10T06:12:27.182Z,995.94
2017-09-10T06:13:27.173Z,995.96
2017-09-10T06:14:27.153Z,995.98
2017-09-10T06:15:27.138Z,995.97
2017-09-10T06:16:27.123Z,995.96
2017-09-10T06:17:27.111Z,995.96
2017-09-10T06:18:27.095Z,995.98
2017-09-10T06:19:27.079Z,995.95
2017-09-10T06:20:27.060Z,995.99
2017-09-10T06:21:27.051Z,995.97
2017-09-10T06:22:27.231Z,996.04
2017-09-10T06:23:27.016Z,995.99
2017-09-10T06:24:27.001Z,996.02
2017-09-10T06:25:26.984Z,996
2017-09-10T06:26:26.972Z,996.03
2017-09-10T06:27:26.954Z,996.09
2017-09-10T06:28:26.939Z,996.07
2017-09-10T06:29:26.923Z,996.07
2017-09-10T06:30:26.910Z,996.08
2017-09-10T06:31:26.894Z,996.01
2017-09-10T06:32:26.883Z,996.02
2017-09-10T06:33:26.862Z,996.02
2017-09-10T06:34:26.848Z,996
2017-09-10T06:35:26.853Z,996.07
2017-09-10T06:36:26.818Z,996.05
2017-09-10T06:37:26.805Z,996.09
2017-09-10T06:38:26.787Z,996.1
2017-09-10T06:39:26.772Z,996.07
2017-09-10T06:40:26.757Z,996.06
2017-09-10T06:41:26.742Z,996.1
2017-09-10T06:42:26.730Z,996.11
2017-09-10T06:43:26.712Z,996.12
2017-09-10T06:44:26.700Z,996.14
2017-09-10T06:45:26.683Z,996.17
2017-09-10T06:46:26.666Z,996.15
2017-09-10T06:47:26.653Z,996.14
2017-09-10T06:48:26.638Z,996.2
2017-09-10T06:49:26.621Z,996.19
2017-09-10T06:50:26.608Z,996.2
2017-09-10T06:51:26.593Z,996.22
2017-09-10T06:52:26.617Z,996.21
2017-09-10T06:53:26.563Z,996.2
2017-09-10T06:54:26.547Z,996.24
2017-09-10T06:55:26.536Z,996.2
2017-09-10T06:56:26.519Z,996.24
2017-09-10T06:57:26.504Z,996.21
2017-09-10T06:58:26.490Z,996.21
2017-09-10T06:59:26.473Z,996.19
2017-09-10T07:00:26.459Z,996.17
2017-09-10T07:01:26.446Z,996.19
2017-09-10T07:02:26.431Z,996.23
2017-09-10T07:03:26.417Z,996.24
2017-09-10T07:04:26.403Z,996.17
2017-09-10T07:05:26.387Z,996.2
2017-09-10T07:06:26.374Z,996.22
2017-09-10T07:07:26.359Z,996.16
2017-09-10T07:08:26.344Z,996.15
2017-09-10T07:09:26.332Z,996.18
2017-09-10T07:10:26.317Z,996.18
2017-09-10T07:11:26.301Z,996.22
2017-09-10T07:12:26.286Z,996.24
2017-09-10T07:13:26.272Z,996.25
2017-09-10T07:14:26.257Z,996.23
2017-09-10T07:15:26.244Z,996.26
2017-09-10T07:16:26.228Z,996.23
2017-09-10T07:17:26.214Z,996.22
2017-09-10T07:18:26.203Z,996.21
2017-09-10T07:19:26.185Z,996.24
2017-09-10T07:20:26.172Z,996.22
2017-09-10T07:21:26.160Z,996.24
2017-09-10T07:22:26.142Z,996.22
2017-09-10T07:23:26.128Z,996.22
2017-09-10T07:24:26.115Z,996.21
2017-09-10T07:25:26.100Z,996.21
2017-09-10T07:26:26.085Z,996.17
2017-09-10T07:27:26.072Z,996.16
2017-09-10T07:28:26.058Z,996.15
2017-09-10T07:29:26.045Z,996.13
2017-09-10T07:30:26.028Z,996.17
2017-09-10T07:31:26.017Z,996.16
2017-09-10T07:32:26.005Z,996.12
2017-09-10T07:33:25.987Z,996.14
2017-09-10T07:34:25.973Z,996.14
2017-09-10T07:35:25.960Z,996.12
2017-09-10T07:36:25.952Z,996.14
2017-09-10T07:37:25.936Z,996.16
2017-09-10T07:38:25.920Z,996.14
2017-09-10T07:39:25.905Z,996.14
2017-09-10T07:40:25.890Z,996.17
2017-09-10T07:41:25.875Z,996.17
2017-09-10T07:42:25.862Z,996.16
2017-09-10T07:43:25.846Z,996.22
2017-09-10T07:44:25.834Z,996.21
2017-09-10T07:45:25.821Z,996.2
2017-09-10T07:46:25.806Z,996.21
2017-09-10T07:47:25.796Z,996.2
2017-09-10T07:48:25.777Z,996.2
2017-09-10T07:49:25.771Z,996.15
2017-09-10T07:50:25.751Z,996.22
2017-09-10T07:51:25.737Z,996.21
2017-09-10T07:52:25.721Z,996.22
2017-09-10T07:53:25.708Z,996.21
2017-09-10T07:54:25.696Z,996.22
2017-09-10T07:55:25.683Z,996.22
2017-09-10T07:56:25.669Z,996.17
2017-09-10T07:57:25.657Z,996.2
2017-09-10T07:58:25.642Z,996.19
2017-09-10T07:59:25.626Z,996.21
2017-09-10T08:00:25.627Z,996.2
2017-09-10T08:01:25.600Z,996.19
2017-09-10T08:02:25.589Z,996.19
2017-09-10T08:03:25.576Z,996.17
2017-09-10T08:04:25.561Z,996.21
2017-09-10T08:05:25.546Z,996.2
2017-09-10T08:06:25.532Z,996.19
2017-09-10T08:07:25.518Z,996.23
2017-09-10T08:08:25.506Z,996.17
2017-09-10T08:09:25.490Z,996.21
2017-09-10T08:10:25.479Z,996.24
2017-09-10T08:11:25.473Z,996.24
2017-09-10T08:12:25.454Z,996.38
2017-09-10T08:13:25.443Z,996.33
2017-09-10T08:14:25.425Z,996.3
2017-09-10T08:15:25.416Z,996.38
2017-09-10T08:16:25.403Z,996.28
2017-09-10T08:17:25.390Z,996.24
2017-09-10T08:18:25.375Z,996.21
2017-09-10T08:19:25.362Z,996.22
2017-09-10T08:20:25.350Z,996.21
2017-09-10T08:21:25.339Z,996.16
2017-09-10T08:22:25.527Z,996.18
2017-09-10T08:23:25.311Z,996.17
2017-09-10T08:24:25.301Z,996.2
2017-09-10T08:25:25.290Z,996.24
2017-09-10T08:26:25.277Z,996.23
2017-09-10T08:27:25.266Z,996.26
2017-09-10T08:28:25.249Z,996.29
2017-09-10T08:29:25.239Z,996.26
2017-09-10T08:30:25.227Z,996.29
2017-09-10T08:31:25.214Z,996.23
2017-09-10T08:32:25.206Z,996.25
2017-09-10T08:33:25.195Z,996.26
2017-09-10T08:34:25.178Z,996.28
2017-09-10T08:35:25.167Z,996.27
2017-09-10T08:36:25.154Z,996.25
2017-09-10T08:37:25.140Z,996.28
2017-09-10T08:38:25.131Z,996.25
2017-09-10T08:39:25.116Z,996.26
2017-09-10T08:40:25.109Z,996.21
2017-09-10T08:41:25.092Z,996.28
2017-09-10T08:42:25.080Z,996.27
2017-09-10T08:43:25.068Z,996.22
2017-09-10T08:44:25.055Z,996.26
2017-09-10T08:45:25.042Z,996.25
2017-09-10T08:46:25.040Z,996.25
2017-09-10T08:47:25.018Z,996.23
2017-09-10T08:48:25.016Z,996.28
2017-09-10T08:49:24.992Z,996.24
2017-09-10T08:50:24.980Z,996.28
2017-09-10T08:51:24.969Z,996.21
2017-09-10T08:52:24.958Z,996.24
2017-09-10T08:53:24.946Z,996.2
2017-09-10T08:54:24.931Z,996.22
2017-09-10T08:55:24.922Z,996.23
2017-09-10T08:56:24.911Z,996.24
2017-09-10T08:57:24.896Z,996.28
2017-09-10T08:58:24.884Z,996.26
2017-09-10T08:59:24.872Z,996.29
2017-09-10T09:00:24.861Z,996.34
2017-09-10T09:01:24.847Z,996.29
2017-09-10T09:02:24.836Z,996.3
2017-09-10T09:03:24.822Z,996.28
2017-09-10T09:04:24.810Z,996.26
2017-09-10T09:05:24.818Z,996.3
2017-09-10T09:06:24.789Z,996.33
2017-09-10T09:07:24.776Z,996.34
2017-09-10T09:08:24.764Z,996.31
2017-09-10T09:09:24.751Z,996.27
2017-09-10T09:10:24.742Z,996.33
2017-09-10T09:11:24.727Z,996.33
2017-09-10T09:12:24.716Z,996.27
2017-09-10T09:13:24.704Z,996.26
2017-09-10T09:14:24.694Z,996.32
2017-09-10T09:15:24.682Z,996.29
2017-09-10T09:16:24.670Z,996.27
2017-09-10T09:17:24.659Z,996.28
2017-09-10T09:18:24.648Z,996.27
2017-09-10T09:19:24.635Z,996.27
2017-09-10T09:20:24.629Z,996.25
2017-09-10T09:21:24.614Z,996.3
2017-09-10T09:22:24.601Z,996.25
2017-09-10T09:23:24.591Z,996.33
2017-09-10T09:24:24.579Z,996.26
2017-09-10T09:25:24.571Z,996.26
2017-09-10T09:26:24.558Z,996.28
2017-09-10T09:27:24.546Z,996.22
2017-09-10T09:28:24.537Z,996.21
2017-09-10T09:29:24.525Z,996.23
2017-09-10T09:30:24.512Z,996.24
2017-09-10T09:31:24.505Z,996.24
2017-09-10T09:32:24.491Z,996.26
2017-09-10T09:33:24.478Z,996.22
2017-09-10T09:34:24.470Z,996.27
2017-09-10T09:35:24.457Z,996.27
2017-09-10T09:36:24.450Z,996.29
2017-09-10T09:37:24.436Z,996.35
2017-09-10T09:38:24.432Z,996.34
2017-09-10T09:39:24.416Z,996.33
2017-09-10T09:40:24.405Z,996.37
2017-09-10T09:41:24.395Z,996.38
2017-09-10T09:42:24.385Z,996.36
2017-09-10T09:43:24.373Z,996.41
2017-09-10T09:44:24.363Z,996.41
2017-09-10T09:45:24.353Z,996.36
2017-09-10T09:46:24.341Z,996.38
2017-09-10T09:47:24.331Z,996.36
2017-09-10T09:48:24.319Z,996.33
2017-09-10T09:49:24.310Z,996.41
2017-09-10T09:50:24.297Z,996.33
2017-09-10T09:51:24.293Z,996.35
2017-09-10T09:52:24.277Z,996.33
2017-09-10T09:53:24.295Z,996.35
2017-09-10T09:54:24.261Z,996.32
2017-09-10T09:55:24.244Z,996.37
2017-09-10T09:56:24.234Z,996.33
2017-09-10T09:57:24.227Z,996.32
2017-09-10T09:58:24.214Z,996.3
2017-09-10T09:59:24.203Z,996.28
2017-09-10T10:00:24.193Z,996.25
2017-09-10T10:01:24.181Z,996.27
2017-09-10T10:02:24.170Z,996.23
2017-09-10T10:03:24.160Z,996.3
2017-09-10T10:04:24.147Z,996.29
2017-09-10T10:05:24.138Z,996.29
2017-09-10T10:06:24.132Z,996.24
2017-09-10T10:07:24.115Z,996.24
2017-09-10T10:08:24.105Z,996.21
2017-09-10T10:09:24.097Z,996.19
2017-09-10T10:10:24.085Z,996.22
2017-09-10T10:11:24.070Z,996.28
2017-09-10T10:12:24.061Z,996.18
2017-09-10T10:13:24.051Z,996.22
2017-09-10T10:14:24.047Z,996.14
2017-09-10T10:15:24.029Z,996.19
2017-09-10T10:16:24.020Z,996.17
2017-09-10T10:17:24.033Z,996.13
2017-09-10T10:18:23.996Z,996.12
2017-09-10T10:19:23.985Z,996.15
2017-09-10T10:20:24.021Z,996.17
2017-09-10T10:21:23.960Z,996.16
2017-09-10T10:22:24.156Z,996.23
2017-09-10T10:23:23.942Z,996.26
2017-09-10T10:24:23.930Z,996.13
2017-09-10T10:25:23.919Z,996.18
2017-09-10T10:26:23.924Z,996.18
2017-09-10T10:27:23.899Z,996.2
2017-09-10T10:28:23.891Z,996.16
2017-09-10T10:29:23.876Z,996.12
2017-09-10T10:30:23.867Z,996.14
2017-09-10T10:31:23.855Z,996.18
2017-09-10T10:32:23.842Z,996.12
2017-09-10T10:33:23.834Z,996.15
2017-09-10T10:34:23.823Z,996.11
2017-09-10T10:35:23.812Z,996.16
2017-09-10T10:36:23.801Z,996.12
2017-09-10T10:37:23.791Z,996.13
2017-09-10T10:38:23.781Z,996.06
2017-09-10T10:39:23.770Z,996.11
2017-09-10T10:40:23.761Z,996.09
2017-09-10T10:41:23.748Z,996.15
2017-09-10T10:42:23.739Z,996.11
2017-09-10T10:43:23.733Z,996.12
2017-09-10T10:44:23.725Z,996.12
2017-09-10T10:45:23.710Z,996.09
2017-09-10T10:46:23.696Z,996.12
2017-09-10T10:47:23.687Z,996.14
2017-09-10T10:48:23.676Z,996.18
2017-09-10T10:49:23.668Z,996.14
2017-09-10T10:50:23.669Z,996.16
2017-09-10T10:51:23.647Z,996.19
2017-09-10T10:52:23.638Z,996.13
2017-09-10T10:53:23.653Z,996.16
2017-09-10T10:54:23.612Z,996.1
2017-09-10T10:55:23.605Z,996.15
2017-09-10T10:56:23.597Z,996.11
2017-09-10T10:57:23.585Z,996
2017-09-10T10:58:23.576Z,996.11
2017-09-10T10:59:23.570Z,996.13
2017-09-10T11:00:23.552Z,996.17
2017-09-10T11:01:23.544Z,996.14
2017-09-10T11:02:23.538Z,996.1
2017-09-10T11:03:23.526Z,996.17
2017-09-10T11:04:23.514Z,996.09
2017-09-10T11:05:23.503Z,996.12
2017-09-10T11:06:23.495Z,996.15
2017-09-10T11:07:23.486Z,996.13
2017-09-10T11:08:23.477Z,996.11
2017-09-10T11:09:23.466Z,996.13
2017-09-10T11:10:23.457Z,996.36
2017-09-10T11:11:23.446Z,996.24
2017-09-10T11:12:23.439Z,996.24
2017-09-10T11:13:23.426Z,996.25
2017-09-10T11:14:23.423Z,996.23
2017-09-10T11:15:23.414Z,996.13
2017-09-10T11:16:23.404Z,996.21
2017-09-10T11:17:23.397Z,996.2
2017-09-10T11:18:23.388Z,996.23
2017-09-10T11:19:23.382Z,996.23
2017-09-10T11:20:23.379Z,996.2
2017-09-10T11:21:23.370Z,996.16
2017-09-10T11:22:23.367Z,996.06
2017-09-10T11:23:23.360Z,996.01
2017-09-10T11:24:23.359Z,996.14
2017-09-10T11:25:23.350Z,996.15
2017-09-10T11:26:23.346Z,996.01
2017-09-10T11:27:23.339Z,996.05
2017-09-10T11:28:23.343Z,995.99
2017-09-10T11:29:23.334Z,995.99
2017-09-10T11:30:23.330Z,996.1
2017-09-10T11:31:23.325Z,996.13
2017-09-10T11:32:23.322Z,996.01
2017-09-10T11:33:23.316Z,996.03
2017-09-10T11:34:23.310Z,995.99
2017-09-10T11:35:23.314Z,996
2017-09-10T11:36:23.303Z,996.01
2017-09-10T11:37:23.300Z,995.94
2017-09-10T11:38:23.295Z,995.94
2017-09-10T11:39:23.288Z,996.06
2017-09-10T11:40:23.283Z,996.09
2017-09-10T11:41:23.282Z,996.07
2017-09-10T11:42:23.279Z,995.97
2017-09-10T11:43:23.280Z,995.91
2017-09-10T11:44:23.263Z,995.98
2017-09-10T11:45:23.256Z,995.97
2017-09-10T11:46:23.253Z,995.98
2017-09-10T11:47:23.250Z,995.97
2017-09-10T11:48:23.245Z,995.83
2017-09-10T11:49:23.241Z,995.95
2017-09-10T11:50:23.238Z,995.91
2017-09-10T11:51:23.232Z,995.91
2017-09-10T11:52:23.227Z,995.89
2017-09-10T11:53:23.220Z,995.86
2017-09-10T11:54:23.216Z,995.84
2017-09-10T11:55:23.210Z,995.95
2017-09-10T11:56:23.202Z,995.94
2017-09-10T11:57:23.198Z,995.87
2017-09-10T11:58:23.191Z,995.86
2017-09-10T11:59:23.186Z,995.81
2017-09-10T12:00:23.176Z,995.82
2017-09-10T12:01:23.175Z,995.86
2017-09-10T12:02:23.167Z,995.82
2017-09-10T12:03:23.159Z,995.81
2017-09-10T12:04:23.150Z,995.75
2017-09-10T12:05:23.148Z,995.72
2017-09-10T12:06:23.139Z,995.78
2017-09-10T12:07:23.132Z,995.79
2017-09-10T12:08:23.122Z,995.93
2017-09-10T12:09:23.116Z,995.9
2017-09-10T12:10:23.107Z,995.8
2017-09-10T12:11:23.101Z,995.83
2017-09-10T12:12:23.097Z,995.77
2017-09-10T12:13:23.091Z,995.69
2017-09-10T12:14:23.085Z,995.75
2017-09-10T12:15:23.081Z,995.7
2017-09-10T12:16:23.078Z,995.74
2017-09-10T12:17:23.071Z,995.71
2017-09-10T12:18:23.066Z,995.67
2017-09-10T12:19:23.062Z,995.62
2017-09-10T12:20:23.057Z,995.59
2017-09-10T12:21:23.051Z,995.68
2017-09-10T12:22:23.251Z,995.59
2017-09-10T12:23:23.043Z,995.61
2017-09-10T12:24:23.040Z,995.6
2017-09-10T12:25:23.033Z,995.77
2017-09-10T12:26:23.028Z,995.69
2017-09-10T12:27:23.023Z,995.68
2017-09-10T12:28:23.018Z,995.7
2017-09-10T12:29:23.014Z,995.59
2017-09-10T12:30:23.013Z,995.56
2017-09-10T12:31:23.008Z,995.54